Time;durP1;ratioP1;P1;durP2;ratioP2;P2;SDS_P1;SDS_P2;PMS_P1;PMS_P2;Temp;Humidity;BMP_temperature;BMP_pressure;BME280_temperature;BME280_humidity;BME280_pressure;Samples;Min_cycle;Max_cycle;Signal;HPM_P1;HPM_P2
2021/06/27 05:00:44;;;;;;;34.13;30.90;;;;;;;;;;5948819;23;20471;-69
2021/06/27 05:03:29;;;;;;;43.23;31.73;;;;;;;;;;4974227;28;20203;-70
2021/06/27 05:06:14;;;;;;;34.73;31.17;;;;;;;;;;4974891;28;20226;-70
2021/06/27 05:08:59;;;;;;;36.20;32.60;;;;;;;;;;4974796;28;20213;-70
2021/06/27 05:11:44;;;;;;;35.40;32.33;;;;;;;;;;4974667;28;20369;-70
2021/06/27 05:17:25;;;;;;;34.23;31.13;;;;;;;;;;4953665;29;20324;-70
2021/06/27 05:20:11;;;;;;;35.33;31.87;;;;;;;;;;4955310;29;20233;-70
2021/06/27 05:22:55;;;;;;;33.57;30.50;;;;;;;;;;4954545;29;20710;-70
2021/06/27 05:25:40;;;;;;;37.23;33.37;;;;;;;;;;4946380;29;20726;-70
2021/06/27 05:28:25;;;;;;;32.93;30.07;;;;;;;;;;4936033;29;20576;-70
2021/06/27 05:31:10;;;;;;;31.90;29.03;;;;;;;;;;4935902;29;20336;-70
2021/06/27 05:33:56;;;;;;;32.17;29.23;;;;;;;;;;4935080;29;20215;-70
2021/06/27 05:36:41;;;;;;;32.53;29.60;;;;;;;;;;4935549;29;20236;-70
2021/06/27 05:39:26;;;;;;;33.37;30.03;;;;;;;;;;4935829;29;20211;-71
2021/06/27 05:42:11;;;;;;;34.50;31.30;;;;;;;;;;4934341;29;20492;-70
2021/06/27 05:44:56;;;;;;;32.27;29.27;;;;;;;;;;4935017;29;20216;-71
2021/06/27 05:47:41;;;;;;;31.53;28.83;;;;;;;;;;4935630;29;20212;-70
2021/06/27 05:50:27;;;;;;;31.53;28.73;;;;;;;;;;4935549;29;20273;-71
2021/06/27 05:53:12;;;;;;;31.67;28.67;;;;;;;;;;4934453;29;20485;-70
2021/06/27 05:56:14;;;;;;;30.67;28.00;;;;;;;;;;4935107;29;20231;-70
2021/06/27 05:58:59;;;;;;;30.33;27.33;;;;;;;;;;4935152;29;20248;-70
2021/06/27 06:01:44;;;;;;;30.90;27.93;;;;;;;;;;4935033;29;20342;-70
2021/06/27 06:04:29;;;;;;;36.27;28.40;;;;;;;;;;4934670;29;20215;-71
2021/06/27 06:07:15;;;;;;;29.97;27.33;;;;;;;;;;4935507;29;20345;-71
2021/06/27 06:10:00;;;;;;;29.47;26.97;;;;;;;;;;4935151;29;20212;-71
2021/06/27 06:12:45;;;;;;;29.77;27.17;;;;;;;;;;4934617;29;20212;-71
2021/06/27 06:15:30;;;;;;;29.37;26.63;;;;;;;;;;4934971;29;20288;-71
2021/06/27 06:18:16;;;;;;;29.50;26.93;;;;;;;;;;4935277;29;20220;-70
2021/06/27 06:21:01;;;;;;;31.50;28.40;;;;;;;;;;4934664;29;20324;-71
2021/06/27 06:23:47;;;;;;;30.87;27.93;;;;;;;;;;4934151;29;20204;-71
2021/06/27 06:26:32;;;;;;;29.03;26.63;;;;;;;;;;4934821;29;20236;-70
2021/06/27 06:29:17;;;;;;;30.60;27.80;;;;;;;;;;4934759;29;20212;-71
2021/06/27 06:32:02;;;;;;;31.17;28.40;;;;;;;;;;4934669;29;20264;-71
2021/06/27 06:34:47;;;;;;;29.97;26.87;;;;;;;;;;4934164;29;20600;-70
2021/06/27 06:37:32;;;;;;;31.23;28.55;;;;;;;;;;4933578;29;20423;-70
2021/06/27 06:40:18;;;;;;;31.57;28.30;;;;;;;;;;4934444;29;20233;-71
2021/06/27 06:43:03;;;;;;;30.37;27.23;;;;;;;;;;4934084;29;20209;-70
2021/06/27 06:45:48;;;;;;;29.13;26.60;;;;;;;;;;4934451;29;20232;-70
2021/06/27 06:48:33;;;;;;;29.13;26.60;;;;;;;;;;4934466;29;20706;-70
2021/06/27 06:51:18;;;;;;;27.37;24.97;;;;;;;;;;4934476;29;20209;-71
2021/06/27 06:54:03;;;;;;;27.77;25.27;;;;;;;;;;4933584;29;20209;-71
2021/06/27 06:56:49;;;;;;;29.93;27.17;;;;;;;;;;4934294;29;20228;-70
2021/06/27 06:59:33;;;;;;;28.77;26.00;;;;;;;;;;4934821;29;20638;-70
2021/06/27 07:02:18;;;;;;;28.60;26.10;;;;;;;;;;4933963;29;20228;-71
2021/06/27 07:05:05;;;;;;;27.77;25.37;;;;;;;;;;4933519;29;20318;-70
2021/06/27 07:07:50;;;;;;;29.37;26.97;;;;;;;;;;4934183;29;20213;-71
2021/06/27 07:10:34;;;;;;;28.13;25.63;;;;;;;;;;4934159;29;20217;-70
2021/06/27 07:13:21;;;;;;;27.97;25.67;;;;;;;;;;4933525;29;20269;-70
2021/06/27 07:16:06;;;;;;;28.77;25.87;;;;;;;;;;4933475;29;20456;-70
2021/06/27 07:18:51;;;;;;;29.27;26.27;;;;;;;;;;4933995;29;20217;-71
2021/06/27 07:21:37;;;;;;;29.77;26.97;;;;;;;;;;4933727;29;20222;-71
2021/06/27 07:24:22;;;;;;;28.90;26.40;;;;;;;;;;4933264;29;20205;-68
2021/06/27 07:27:08;;;;;;;29.90;26.73;;;;;;;;;;4933703;29;20208;-71
2021/06/27 07:29:54;;;;;;;28.73;26.27;;;;;;;;;;4933567;29;20398;-71
2021/06/27 07:32:39;;;;;;;30.75;28.25;;;;;;;;;;4931898;29;20401;-70
2021/06/27 07:35:24;;;;;;;29.13;26.63;;;;;;;;;;4933791;29;20716;-70
2021/06/27 07:38:09;;;;;;;28.03;25.53;;;;;;;;;;4933470;29;20213;-71
2021/06/27 07:40:54;;;;;;;29.10;26.60;;;;;;;;;;4933546;29;20312;-70
2021/06/27 07:43:39;;;;;;;28.83;26.43;;;;;;;;;;4933040;29;20334;-71
2021/06/27 07:46:25;;;;;;;28.53;26.03;;;;;;;;;;4933463;29;20782;-70
2021/06/27 07:49:11;;;;;;;27.93;25.43;;;;;;;;;;4933329;29;20213;-70
2021/06/27 07:51:55;;;;;;;47.77;28.30;;;;;;;;;;4933479;29;20209;-71
2021/06/27 07:54:41;;;;;;;28.37;25.87;;;;;;;;;;4932766;29;20220;-70
2021/06/27 07:57:25;;;;;;;28.20;25.67;;;;;;;;;;4933521;29;20217;-71
2021/06/27 08:00:11;;;;;;;28.53;25.93;;;;;;;;;;4933138;29;20218;-71
2021/06/27 08:02:57;;;;;;;28.60;25.80;;;;;;;;;;4932802;29;20205;-70
2021/06/27 08:05:42;;;;;;;28.40;25.90;;;;;;;;;;4933266;29;20213;-70
2021/06/27 08:08:27;;;;;;;28.73;26.40;;;;;;;;;;4933473;29;20735;-71
2021/06/27 08:11:12;;;;;;;30.07;25.60;;;;;;;;;;4933539;29;20739;-70
2021/06/27 08:13:57;;;;;;;29.03;26.23;;;;;;;;;;4933039;29;20292;-70
2021/06/27 08:16:42;;;;;;;27.83;25.23;;;;;;;;;;4936006;29;20232;-70
2021/06/27 08:19:28;;;;;;;26.97;24.70;;;;;;;;;;4937220;29;20299;-70
2021/06/27 08:22:13;;;;;;;30.00;25.40;;;;;;;;;;4936772;29;20225;-71
2021/06/27 08:24:58;;;;;;;27.10;24.90;;;;;;;;;;4937087;29;20508;-70
2021/06/27 08:27:43;;;;;;;30.38;27.52;;;;;;;;;;4935667;29;20418;-71
2021/06/27 08:30:28;;;;;;;26.40;24.10;;;;;;;;;;4937094;29;20491;-71
2021/06/27 08:33:13;;;;;;;26.77;24.30;;;;;;;;;;4936114;29;20212;-70
2021/06/27 08:35:59;;;;;;;25.07;23.07;;;;;;;;;;4936991;29;20731;-70
2021/06/27 08:38:44;;;;;;;25.30;23.00;;;;;;;;;;4936936;29;20349;-71
2021/06/27 08:41:29;;;;;;;30.07;25.60;;;;;;;;;;4936720;29;20296;-71
2021/06/27 08:44:14;;;;;;;29.73;24.83;;;;;;;;;;4936197;29;20267;-71
2021/06/27 08:46:59;;;;;;;26.23;23.93;;;;;;;;;;4936615;29;20729;-70
2021/06/27 08:49:46;;;;;;;25.20;22.97;;;;;;;;;;4936676;29;20579;-70
2021/06/27 08:52:33;;;;;;;26.07;23.83;;;;;;;;;;4936447;29;20205;-71
2021/06/27 08:55:18;;;;;;;26.33;24.13;;;;;;;;;;4936536;29;20279;-71
2021/06/27 08:58:03;;;;;;;24.73;22.70;;;;;;;;;;4936392;29;20282;-71
2021/06/27 09:00:48;;;;;;;33.43;23.90;;;;;;;;;;4936410;29;20205;-70
2021/06/27 09:03:33;;;;;;;25.03;22.93;;;;;;;;;;4935882;29;20225;-70
2021/06/27 09:06:25;;;;;;;23.87;21.87;;;;;;;;;;4936029;29;20822;-70
2021/06/27 09:09:13;;;;;;;24.93;22.67;;;;;;;;;;4936546;29;20221;-71
2021/06/27 09:11:59;;;;;;;26.00;23.10;;;;;;;;;;4936291;29;20225;-70
2021/06/27 09:14:45;;;;;;;26.50;23.70;;;;;;;;;;4935305;29;20210;-70
2021/06/27 09:17:32;;;;;;;33.27;21.27;;;;;;;;;;4936184;29;20311;-71
2021/06/27 09:20:17;;;;;;;40.27;24.50;;;;;;;;;;4936567;29;20206;-70
2021/06/27 09:23:02;;;;;;;24.75;22.52;;;;;;;;;;4933825;29;20502;-71
2021/06/27 09:25:48;;;;;;;22.87;20.33;;;;;;;;;;4936027;29;20240;-70
2021/06/27 09:28:40;;;;;;;21.27;19.57;;;;;;;;;;4935085;29;20588;-71
2021/06/27 09:31:33;;;;;;;20.87;18.77;;;;;;;;;;4935958;29;20212;-70
2021/06/27 09:34:18;;;;;;;19.07;17.40;;;;;;;;;;4935163;29;20288;-71
2021/06/27 09:37:03;;;;;;;26.83;19.30;;;;;;;;;;4935858;29;20205;-71
2021/06/27 09:39:54;;;;;;;19.83;18.00;;;;;;;;;;4935766;29;20699;-70
2021/06/27 09:42:41;;;;;;;23.13;18.63;;;;;;;;;;4934893;29;20612;-70
2021/06/27 09:45:26;;;;;;;25.17;17.20;;;;;;;;;;4935512;29;20328;-70
2021/06/27 09:48:10;;;;;;;16.60;15.33;;;;;;;;;;4935636;29;20211;-69
2021/06/27 09:50:58;;;;;;;16.33;15.03;;;;;;;;;;4935522;29;20304;-68
2021/06/27 09:53:45;;;;;;;16.00;14.50;;;;;;;;;;4934875;29;20260;-70
2021/06/27 09:56:36;;;;;;;14.73;13.43;;;;;;;;;;4935692;29;20212;-70
2021/06/27 09:59:32;;;;;;;13.73;12.53;;;;;;;;;;4935431;29;20223;-70
2021/06/27 10:02:17;;;;;;;14.00;12.90;;;;;;;;;;4935171;29;20226;-70
2021/06/27 10:05:21;;;;;;;15.07;13.87;;;;;;;;;;4935226;29;20231;-70
2021/06/27 10:08:07;;;;;;;15.87;14.47;;;;;;;;;;4935487;29;20458;-67
2021/06/27 10:11:06;;;;;;;15.40;14.00;;;;;;;;;;4935262;29;20211;-67
2021/06/27 10:13:54;;;;;;;13.33;11.40;;;;;;;;;;4934279;29;20258;-67
2021/06/27 10:16:41;;;;;;;14.40;13.00;;;;;;;;;;4934619;29;20497;-70
2021/06/27 10:19:26;;;;;;;13.90;11.77;;;;;;;;;;4935229;29;20540;-70
2021/06/27 10:22:11;;;;;;;22.87;13.13;;;;;;;;;;4935025;29;20277;-70
2021/06/27 10:24:57;;;;;;;17.03;12.20;;;;;;;;;;4934025;29;20207;-70
2021/06/27 10:27:42;;;;;;;18.87;11.73;;;;;;;;;;4934831;29;20211;-69
2021/06/27 10:30:27;;;;;;;11.80;10.60;;;;;;;;;;4934972;29;20298;-70
2021/06/27 10:33:13;;;;;;;14.23;12.17;;;;;;;;;;4934200;29;20671;-70
2021/06/27 10:35:59;;;;;;;18.10;12.93;;;;;;;;;;4934525;29;20250;-70
2021/06/27 10:38:47;;;;;;;11.80;10.80;;;;;;;;;;4934611;29;20287;-70
2021/06/27 10:41:47;;;;;;;12.17;10.90;;;;;;;;;;4934610;29;20225;-71
2021/06/27 10:44:53;;;;;;;12.83;11.87;;;;;;;;;;4933945;29;20215;-70
2021/06/27 10:47:39;;;;;;;12.50;11.60;;;;;;;;;;4934219;29;20222;-70
2021/06/27 10:50:45;;;;;;;13.50;11.67;;;;;;;;;;4934447;29;20791;-70
2021/06/27 10:53:30;;;;;;;12.20;10.57;;;;;;;;;;4933817;29;20287;-71
2021/06/27 10:56:32;;;;;;;10.53;9.73;;;;;;;;;;4934389;29;20256;-70
2021/06/27 10:59:36;;;;;;;11.33;10.43;;;;;;;;;;4934662;29;20208;-70
2021/06/27 11:02:22;;;;;;;13.47;10.90;;;;;;;;;;4934164;29;20228;-70
2021/06/27 11:05:25;;;;;;;11.30;10.40;;;;;;;;;;4934360;29;20233;-68
2021/06/27 11:08:28;;;;;;;11.27;10.20;;;;;;;;;;4934614;29;20215;-71
2021/06/27 11:11:14;;;;;;;11.25;10.38;;;;;;;;;;4934020;29;20422;-66
2021/06/27 11:14:24;;;;;;;12.10;11.10;;;;;;;;;;4933590;29;20271;-71
2021/06/27 11:17:09;;;;;;;10.93;10.10;;;;;;;;;;4981160;23;20259;-70
2021/06/27 11:20:03;;;;;;;11.40;10.50;;;;;;;;;;4972520;28;20295;-70
2021/06/27 11:22:49;;;;;;;11.73;10.67;;;;;;;;;;4971509;28;20228;-70
2021/06/27 11:25:35;;;;;;;14.47;10.90;;;;;;;;;;4972128;28;20228;-70
2021/06/27 11:28:37;;;;;;;11.27;10.47;;;;;;;;;;4972274;28;20210;-70
2021/06/27 11:31:26;;;;;;;11.27;10.13;;;;;;;;;;4972425;28;20696;-70
2021/06/27 11:34:23;;;;;;;12.00;10.57;;;;;;;;;;4971458;28;20212;-69
2021/06/27 11:37:23;;;;;;;10.90;10.00;;;;;;;;;;4972096;28;20227;-70
2021/06/27 11:40:08;;;;;;;11.77;10.57;;;;;;;;;;4971917;28;20208;-69
2021/06/27 11:42:53;;;;;;;11.17;10.07;;;;;;;;;;4971120;28;20239;-69
2021/06/27 11:45:44;;;;;;;10.60;9.80;;;;;;;;;;4972132;28;20577;-70
2021/06/27 11:48:29;;;;;;;10.83;9.93;;;;;;;;;;4972296;28;20340;-69
2021/06/27 11:51:14;;;;;;;17.40;10.83;;;;;;;;;;4971497;28;20283;-70
2021/06/27 11:53:59;;;;;;;9.90;9.07;;;;;;;;;;4971270;28;20821;-70
2021/06/27 11:56:55;;;;;;;9.43;8.67;;;;;;;;;;4971740;28;20237;-69
2021/06/27 11:59:41;;;;;;;9.67;8.77;;;;;;;;;;4972061;28;20303;-69
2021/06/27 12:02:29;;;;;;;9.10;8.20;;;;;;;;;;4971760;28;20227;-69
2021/06/27 12:05:15;;;;;;;9.17;8.30;;;;;;;;;;4972012;28;20316;-69
2021/06/27 12:08:04;;;;;;;9.43;8.68;;;;;;;;;;4970586;28;20419;-69
2021/06/27 12:10:50;;;;;;;9.57;8.77;;;;;;;;;;4972084;28;20610;-70
2021/06/27 12:13:35;;;;;;;8.47;7.87;;;;;;;;;;4971130;28;20298;-70
2021/06/27 12:16:20;;;;;;;8.43;7.60;;;;;;;;;;4971592;28;20235;-69
2021/06/27 12:19:07;;;;;;;8.53;7.87;;;;;;;;;;4971861;28;20211;-70
2021/06/27 12:21:52;;;;;;;8.43;7.80;;;;;;;;;;4971534;28;20224;-69
2021/06/27 12:24:38;;;;;;;8.57;7.87;;;;;;;;;;4970956;28;20280;-69
2021/06/27 12:27:23;;;;;;;8.77;8.07;;;;;;;;;;4971525;28;20335;-70
2021/06/27 12:30:08;;;;;;;10.20;9.20;;;;;;;;;;4971361;28;20343;-69
2021/06/27 12:32:59;;;;;;;9.77;7.47;;;;;;;;;;4970876;28;20635;-70
2021/06/27 12:35:47;;;;;;;7.90;7.30;;;;;;;;;;4971496;28;20335;-69
2021/06/27 12:38:32;;;;;;;8.13;7.63;;;;;;;;;;4971492;28;20571;-69
2021/06/27 12:41:19;;;;;;;8.43;7.60;;;;;;;;;;4971703;28;20224;-69
2021/06/27 12:44:06;;;;;;;7.60;7.00;;;;;;;;;;4970989;28;20301;-69
2021/06/27 12:46:53;;;;;;;7.00;6.40;;;;;;;;;;4971521;28;20298;-70
2021/06/27 12:49:49;;;;;;;7.60;7.10;;;;;;;;;;4971706;28;20215;-70
2021/06/27 12:52:36;;;;;;;7.77;7.20;;;;;;;;;;4970846;28;20255;-69
2021/06/27 12:55:21;;;;;;;10.77;7.80;;;;;;;;;;4971318;28;20339;-69
2021/06/27 12:58:06;;;;;;;17.00;8.23;;;;;;;;;;4971450;28;20223;-70
2021/06/27 13:01:01;;;;;;;8.02;7.35;;;;;;;;;;4971068;28;20411;-69
2021/06/27 13:03:55;;;;;;;7.73;7.23;;;;;;;;;;4973826;28;20743;-69
2021/06/27 13:06:52;;;;;;;8.30;7.40;;;;;;;;;;4974961;28;20262;-69
2021/06/27 13:09:40;;;;;;;7.93;7.33;;;;;;;;;;4974884;28;20240;-69
2021/06/27 13:12:25;;;;;;;7.70;7.10;;;;;;;;;;4974675;28;20204;-69
2021/06/27 13:15:12;;;;;;;9.87;7.47;;;;;;;;;;4974539;28;20304;-70
2021/06/27 13:17:58;;;;;;;7.13;6.60;;;;;;;;;;4974404;28;20215;-70
2021/06/27 13:20:44;;;;;;;8.30;7.50;;;;;;;;;;4974401;28;20207;-69
2021/06/27 13:23:31;;;;;;;7.93;7.13;;;;;;;;;;4973540;28;20228;-70
2021/06/27 13:26:18;;;;;;;7.97;6.80;;;;;;;;;;4974266;28;20712;-69
2021/06/27 13:29:03;;;;;;;7.67;6.93;;;;;;;;;;4974345;28;20303;-69
2021/06/27 13:31:48;;;;;;;6.97;6.47;;;;;;;;;;4974378;28;20226;-70
2021/06/27 13:34:33;;;;;;;7.23;6.73;;;;;;;;;;4973740;28;20577;-69
2021/06/27 13:37:18;;;;;;;6.97;6.43;;;;;;;;;;4974375;28;20319;-70
2021/06/27 13:40:04;;;;;;;7.47;6.73;;;;;;;;;;4974377;28;20207;-68
2021/06/27 13:42:50;;;;;;;6.53;6.10;;;;;;;;;;4973380;28;20223;-69
2021/06/27 13:45:35;;;;;;;6.97;6.47;;;;;;;;;;4974078;28;20239;-69
2021/06/27 13:48:21;;;;;;;13.33;7.27;;;;;;;;;;4974039;28;20199;-70
2021/06/27 13:51:06;;;;;;;6.70;6.17;;;;;;;;;;4973804;28;20207;-69
2021/06/27 13:53:51;;;;;;;10.73;7.90;;;;;;;;;;4973049;28;20240;-69
2021/06/27 13:56:36;;;;;;;8.35;7.70;;;;;;;;;;4972704;28;20411;-69
2021/06/27 13:59:22;;;;;;;7.30;6.50;;;;;;;;;;4973876;28;20617;-69
2021/06/27 14:02:07;;;;;;;6.67;6.17;;;;;;;;;;4973695;28;20203;-69
2021/06/27 14:04:52;;;;;;;7.67;6.47;;;;;;;;;;4973300;28;20687;-70
2021/06/27 14:07:37;;;;;;;6.87;6.30;;;;;;;;;;4973676;28;20279;-69
2021/06/27 14:10:23;;;;;;;7.17;6.47;;;;;;;;;;4973509;28;20704;-70
2021/06/27 14:13:08;;;;;;;6.47;5.97;;;;;;;;;;4972380;28;20211;-70
2021/06/27 14:15:55;;;;;;;6.57;6.17;;;;;;;;;;4973411;28;20585;-69
2021/06/27 14:18:40;;;;;;;9.53;6.73;;;;;;;;;;4973385;28;20208;-69
2021/06/27 14:21:25;;;;;;;6.83;6.30;;;;;;;;;;4973439;28;20208;-70
2021/06/27 14:24:10;;;;;;;6.77;6.17;;;;;;;;;;4972503;28;20699;-69
2021/06/27 14:26:57;;;;;;;11.67;6.53;;;;;;;;;;4972973;28;20807;-69
2021/06/27 14:29:42;;;;;;;6.57;6.17;;;;;;;;;;4973290;28;20219;-70
2021/06/27 14:32:28;;;;;;;6.40;6.00;;;;;;;;;;4972886;28;20208;-70
2021/06/27 14:35:13;;;;;;;14.80;6.90;;;;;;;;;;4973044;28;20212;-70
2021/06/27 14:37:58;;;;;;;10.37;6.63;;;;;;;;;;4973044;28;20519;-69
2021/06/27 14:40:44;;;;;;;9.90;6.87;;;;;;;;;;4973135;28;20752;-69
2021/06/27 14:43:29;;;;;;;7.10;6.63;;;;;;;;;;4972057;28;20267;-69
2021/06/27 14:46:14;;;;;;;7.33;6.63;;;;;;;;;;4973020;28;20230;-70
2021/06/27 14:49:01;;;;;;;5.97;5.67;;;;;;;;;;4972980;28;20602;-70
2021/06/27 14:51:46;;;;;;;7.07;6.57;;;;;;;;;;4971951;28;20391;-70
2021/06/27 14:54:30;;;;;;;7.20;6.30;;;;;;;;;;4972223;28;20204;-69
2021/06/27 14:57:15;;;;;;;6.63;6.20;;;;;;;;;;4972612;28;20368;-70
2021/06/27 15:00:00;;;;;;;6.63;6.00;;;;;;;;;;4972697;28;20291;-69
2021/06/27 15:02:45;;;;;;;6.37;5.93;;;;;;;;;;4971978;28;20236;-69
2021/06/27 15:05:32;;;;;;;6.53;6.10;;;;;;;;;;4972332;28;20224;-69
2021/06/27 15:08:17;;;;;;;7.43;6.63;;;;;;;;;;4972633;28;20231;-69
2021/06/27 15:11:02;;;;;;;6.50;6.07;;;;;;;;;;4972297;28;20212;-69
2021/06/27 15:13:49;;;;;;;6.47;6.03;;;;;;;;;;4971813;28;20208;-69
2021/06/27 15:16:34;;;;;;;6.27;5.87;;;;;;;;;;4972392;28;20242;-70
2021/06/27 15:19:19;;;;;;;6.87;6.27;;;;;;;;;;4972115;28;20680;-69
2021/06/27 15:22:05;;;;;;;10.57;6.80;;;;;;;;;;4972038;28;20211;-70
2021/06/27 15:24:50;;;;;;;6.73;6.23;;;;;;;;;;4970622;28;20318;-69
2021/06/27 15:27:35;;;;;;;7.07;6.47;;;;;;;;;;4972175;28;20227;-70
2021/06/27 15:30:20;;;;;;;6.63;6.17;;;;;;;;;;4972304;28;20614;-70
2021/06/27 15:33:05;;;;;;;6.37;5.97;;;;;;;;;;4971617;28;20203;-70
2021/06/27 15:35:50;;;;;;;6.30;5.90;;;;;;;;;;4972471;28;20236;-70
2021/06/27 15:38:36;;;;;;;14.23;7.20;;;;;;;;;;4972318;28;20384;-70
2021/06/27 15:41:21;;;;;;;7.27;6.53;;;;;;;;;;4972285;28;20208;-69
2021/06/27 15:44:06;;;;;;;8.73;6.40;;;;;;;;;;4971126;28;20231;-69
2021/06/27 15:46:51;;;;;;;6.47;5.97;;;;;;;;;;4970988;28;20778;-69
2021/06/27 15:49:36;;;;;;;6.70;6.07;;;;;;;;;;4971996;28;20208;-70
2021/06/27 15:52:21;;;;;;;6.57;5.83;;;;;;;;;;4971824;28;20256;-70
2021/06/27 15:55:08;;;;;;;6.50;6.10;;;;;;;;;;4972002;28;20563;-69
2021/06/27 15:57:53;;;;;;;6.33;5.77;;;;;;;;;;4971622;28;20279;-70
2021/06/27 16:00:38;;;;;;;6.40;5.90;;;;;;;;;;4971892;28;20339;-70
2021/06/27 16:03:23;;;;;;;6.63;6.17;;;;;;;;;;4971055;28;20367;-70
2021/06/27 16:06:08;;;;;;;6.63;6.00;;;;;;;;;;4971702;28;20306;-69
2021/06/27 16:08:55;;;;;;;6.67;6.23;;;;;;;;;;4971999;28;20211;-69
2021/06/27 16:11:42;;;;;;;6.50;6.00;;;;;;;;;;4972144;28;20335;-70
2021/06/27 16:14:27;;;;;;;6.50;6.10;;;;;;;;;;4971233;28;20302;-70
2021/06/27 16:17:12;;;;;;;6.60;6.10;;;;;;;;;;4972305;28;20814;-69
2021/06/27 16:19:57;;;;;;;6.27;5.77;;;;;;;;;;4971688;28;20692;-70
2021/06/27 16:22:42;;;;;;;6.37;5.87;;;;;;;;;;4970770;28;20211;-69
2021/06/27 16:25:27;;;;;;;6.63;6.20;;;;;;;;;;4971650;28;20309;-69
2021/06/27 16:28:13;;;;;;;6.67;6.17;;;;;;;;;;4971968;28;20504;-70
2021/06/27 16:30:58;;;;;;;6.00;5.60;;;;;;;;;;4971776;28;20380;-69
2021/06/27 16:33:43;;;;;;;6.20;5.80;;;;;;;;;;4970920;28;20608;-69
2021/06/27 16:36:28;;;;;;;6.23;5.83;;;;;;;;;;4972374;28;20724;-70
2021/06/27 16:39:13;;;;;;;6.60;6.00;;;;;;;;;;4975567;28;20250;-69
2021/06/27 16:41:58;;;;;;;6.60;6.00;;;;;;;;;;4974099;28;20423;-69
2021/06/27 16:44:44;;;;;;;5.93;5.53;;;;;;;;;;4974277;28;20228;-69
2021/06/27 16:47:29;;;;;;;6.20;5.80;;;;;;;;;;4975592;28;20208;-69
2021/06/27 16:50:15;;;;;;;6.17;5.77;;;;;;;;;;4975076;28;20231;-69
2021/06/27 16:53:00;;;;;;;16.30;7.33;;;;;;;;;;4974351;28;20204;-69
2021/06/27 16:55:45;;;;;;;5.93;3.40;;;;;;;;;;4974735;28;20231;-69
2021/06/27 16:58:30;;;;;;;4.50;3.33;;;;;;;;;;4975015;28;20212;-69
2021/06/27 17:01:17;;;;;;;6.07;3.50;;;;;;;;;;4974904;28;20212;-69
2021/06/27 17:04:02;;;;;;;4.90;3.40;;;;;;;;;;4974005;28;20279;-68
2021/06/27 17:06:47;;;;;;;7.40;3.50;;;;;;;;;;4974778;28;20228;-69
2021/06/27 17:09:32;;;;;;;3.73;3.40;;;;;;;;;;4974812;28;20569;-69
2021/06/27 17:12:18;;;;;;;8.43;4.60;;;;;;;;;;4974712;28;20214;-69
2021/06/27 17:15:03;;;;;;;15.65;7.50;;;;;;;;;;4973788;28;20471;-68
2021/06/27 17:17:49;;;;;;;10.83;7.67;;;;;;;;;;4994861;23;20252;-67
2021/06/27 17:20:35;;;;;;;8.50;7.03;;;;;;;;;;4974766;28;20695;-67
2021/06/27 17:23:20;;;;;;;11.50;6.07;;;;;;;;;;4973814;28;20207;-67
2021/06/27 17:26:05;;;;;;;9.67;6.33;;;;;;;;;;4974873;28;20227;-66
2021/06/27 17:28:51;;;;;;;8.73;6.67;;;;;;;;;;4974537;28;20215;-66
2021/06/27 17:31:36;;;;;;;7.63;6.30;;;;;;;;;;4974775;28;20343;-68
2021/06/27 17:34:22;;;;;;;6.37;5.87;;;;;;;;;;4974016;28;20200;-66
2021/06/27 17:37:08;;;;;;;7.03;5.40;;;;;;;;;;4974541;28;20230;-66
2021/06/27 17:39:53;;;;;;;8.67;5.93;;;;;;;;;;4974514;28;20212;-66
2021/06/27 17:42:38;;;;;;;8.83;6.73;;;;;;;;;;4973732;28;20239;-66
2021/06/27 17:45:23;;;;;;;8.47;7.67;;;;;;;;;;4974063;28;20230;-66
2021/06/27 17:48:08;;;;;;;9.27;8.37;;;;;;;;;;4973520;28;20223;-68
2021/06/27 17:50:54;;;;;;;9.63;8.93;;;;;;;;;;4974424;28;20583;-67
2021/06/27 17:53:40;;;;;;;11.00;9.80;;;;;;;;;;4973876;28;20502;-66
2021/06/27 17:56:27;;;;;;;16.30;10.67;;;;;;;;;;4974041;28;20227;-67
2021/06/27 17:59:13;;;;;;;11.83;10.73;;;;;;;;;;4974085;28;20227;-66
2021/06/27 18:01:59;;;;;;;15.07;11.20;;;;;;;;;;4973839;28;20228;-67
2021/06/27 18:04:43;;;;;;;13.30;11.33;;;;;;;;;;4973047;28;20288;-67
2021/06/27 18:07:30;;;;;;;12.07;10.57;;;;;;;;;;4973817;28;20286;-68
2021/06/27 18:10:14;;;;;;;11.47;10.53;;;;;;;;;;4973852;28;20219;-67
2021/06/27 18:12:59;;;;;;;13.97;11.10;;;;;;;;;;4972811;28;20215;-66
2021/06/27 18:15:44;;;;;;;22.83;11.73;;;;;;;;;;4973513;28;20275;-68
2021/06/27 18:18:29;;;;;;;12.20;10.93;;;;;;;;;;4973495;28;20340;-66
2021/06/27 18:21:15;;;;;;;12.80;11.50;;;;;;;;;;4973350;28;20269;-66
2021/06/27 18:24:01;;;;;;;11.20;10.30;;;;;;;;;;4972478;28;20227;-66
2021/06/27 18:26:46;;;;;;;22.00;11.13;;;;;;;;;;4973399;28;20337;-67
2021/06/27 18:29:31;;;;;;;17.85;12.32;;;;;;;;;;4973004;28;20415;-68
2021/06/27 18:32:16;;;;;;;12.53;11.23;;;;;;;;;;4973211;28;20588;-67
2021/06/27 18:35:02;;;;;;;11.37;10.33;;;;;;;;;;4973189;28;20287;-66
2021/06/27 18:37:47;;;;;;;31.80;12.23;;;;;;;;;;4973079;28;20741;-68
2021/06/27 18:40:33;;;;;;;14.37;10.77;;;;;;;;;;4973178;28;20210;-68
2021/06/27 18:43:18;;;;;;;16.30;10.30;;;;;;;;;;4972784;28;20335;-67
2021/06/27 18:46:03;;;;;;;14.07;11.00;;;;;;;;;;4972805;28;20227;-67
2021/06/27 18:48:48;;;;;;;11.40;10.50;;;;;;;;;;4972965;28;20213;-67
2021/06/27 18:51:33;;;;;;;11.37;10.27;;;;;;;;;;4972987;28;20227;-67
2021/06/27 18:54:18;;;;;;;10.70;9.90;;;;;;;;;;4972196;28;20206;-66
2021/06/27 18:57:04;;;;;;;11.73;10.63;;;;;;;;;;4972926;28;20314;-67
2021/06/27 18:59:49;;;;;;;10.47;9.60;;;;;;;;;;4972589;28;20255;-67
2021/06/27 19:02:35;;;;;;;11.10;10.20;;;;;;;;;;4972096;28;20215;-65
2021/06/27 19:05:20;;;;;;;38.70;13.27;;;;;;;;;;4972518;28;20230;-67
2021/06/27 19:08:05;;;;;;;13.27;11.27;;;;;;;;;;4972593;28;20297;-66
2021/06/27 19:10:50;;;;;;;22.63;11.53;;;;;;;;;;4972633;28;20238;-67
2021/06/27 19:13:36;;;;;;;13.57;12.20;;;;;;;;;;4972349;28;20206;-67
2021/06/27 19:16:21;;;;;;;11.67;10.70;;;;;;;;;;4972340;28;20322;-66
2021/06/27 19:19:06;;;;;;;30.10;13.37;;;;;;;;;;4972531;28;20577;-66
2021/06/27 19:21:51;;;;;;;13.07;11.23;;;;;;;;;;4972217;28;20627;-67
2021/06/27 19:24:35;;;;;;;15.10;13.55;;;;;;;;;;4971086;28;20805;-67
2021/06/27 19:27:20;;;;;;;12.80;11.63;;;;;;;;;;4971925;28;20712;-67
2021/06/27 19:30:08;;;;;;;17.80;11.90;;;;;;;;;;4972377;28;20215;-68
2021/06/27 19:32:53;;;;;;;12.40;11.33;;;;;;;;;;4971632;28;20691;-72
2021/06/27 19:35:38;;;;;;;12.63;11.63;;;;;;;;;;4972271;28;20208;-67
2021/06/27 19:38:23;;;;;;;12.23;11.23;;;;;;;;;;4971589;28;20205;-67
2021/06/27 19:41:08;;;;;;;13.77;12.53;;;;;;;;;;4971327;28;20205;-68
2021/06/27 19:43:55;;;;;;;13.30;12.13;;;;;;;;;;4970818;28;20208;-67
2021/06/27 19:46:42;;;;;;;27.33;14.23;;;;;;;;;;4966375;28;20814;-67
2021/06/27 19:49:27;;;;;;;18.20;13.47;;;;;;;;;;4971231;28;20815;-67
2021/06/27 19:52:12;;;;;;;16.70;13.87;;;;;;;;;;4971641;28;20216;-68
2021/06/27 19:54:57;;;;;;;32.33;15.57;;;;;;;;;;4970885;28;20218;-68
2021/06/27 19:57:42;;;;;;;43.97;16.13;;;;;;;;;;4969355;28;20245;-68
